首页
METAR-TAF:

METAR-TAF

机场 :

苏巴迪奥国际机场

坤甸, 印度尼西亚

纬度: 00-09S, 经度: 109-24E, 海拔: 3米

当前天气观测

该预报发布于46分钟前的23:00 UTC
风速3节,风向
温度 26°C
湿度 100%
气压 1008 hPa
能見度: 8000
多云层高于1200英尺
小雨,

METAR: WIOO 282300Z 09003KT 8000 -RA BKN012 26/26 Q1008 NOSIG

时间: 06:46 (23:46 UTC)


TAF: 丢失

超过4000个机场的气象观测和天气预报(METAR&TAF报告)。

可查询的气象台以黄色和红色小点在地图上表示。

将鼠标移到小点上方,可查看气象台名称。

然后点击查看天气观测和预报。

如需切换地图:点击带黑十字的绿色按钮放大地图;点击带横线的绿色按钮缩小地图;或者点击绿色箭头查看邻近地区的地图。


METAR-TAF: